Time;durP1;ratioP1;P1;durP2;ratioP2;P2;SDS_P1;SDS_P2;PMS_P1;PMS_P2;Temp;Humidity;BMP_temperature;BMP_pressure;BME280_temperature;BME280_humidity;BME280_pressure;Samples;Min_cycle;Max_cycle;Signal;HPM_P1;HPM_P2
2021/04/03 00:01:52;;;;;;;27.88;4.65;;;;;;;5.39;95.75;101232.09;5210834;28;20024;-77
2021/04/03 00:04:22;;;;;;;33.20;4.50;;;;;;;5.41;95.69;101234.69;5213493;28;20475;-77
2021/04/03 00:06:52;;;;;;;33.65;4.57;;;;;;;5.49;95.46;101238.09;5209503;28;20123;-78
2021/04/03 00:09:22;;;;;;;29.73;4.68;;;;;;;5.38;95.52;101239.88;5208626;28;20036;-77
2021/04/03 00:11:53;;;;;;;28.00;4.63;;;;;;;5.33;95.54;101236.44;5213778;28;20073;-77
2021/04/03 00:14:23;;;;;;;33.60;5.18;;;;;;;5.32;95.52;101236.44;5224199;28;20017;-77
2021/04/03 00:16:53;;;;;;;31.90;5.03;;;;;;;5.40;95.33;101238.13;5213610;28;20029;-77
2021/04/03 00:19:24;;;;;;;34.33;4.35;;;;;;;5.44;95.05;101237.25;5215674;28;20032;-77
2021/04/03 00:21:54;;;;;;;30.45;4.80;;;;;;;5.39;94.99;101226.06;5212794;28;20029;-77
2021/04/03 00:24:24;;;;;;;30.98;4.30;;;;;;;5.33;95.47;101230.41;5215442;28;20060;-77
2021/04/03 00:26:55;;;;;;;33.45;4.45;;;;;;;5.30;95.03;101220.91;5213438;28;20044;-77
2021/04/03 00:29:25;;;;;;;25.33;3.83;;;;;;;5.23;94.81;101219.22;5215263;28;20103;-77
2021/04/03 00:31:55;;;;;;;33.03;4.30;;;;;;;5.25;95.18;101225.25;5214154;28;20521;-77
2021/04/03 00:34:26;;;;;;;32.97;4.25;;;;;;;5.22;94.82;101227.84;5216678;28;20182;-77
2021/04/03 00:36:56;;;;;;;27.20;3.83;;;;;;;5.16;94.80;101225.25;5215433;28;20030;-77
2021/04/03 00:39:27;;;;;;;34.15;4.50;;;;;;;5.20;94.69;101232.19;5224245;28;20048;-77
2021/04/03 00:41:58;;;;;;;26.52;4.00;;;;;;;5.18;94.20;101236.47;5206591;28;20410;-77
2021/04/03 00:44:28;;;;;;;28.30;4.00;;;;;;;5.07;94.51;101232.19;5224442;28;20025;-77
2021/04/03 00:46:58;;;;;;;38.67;4.53;;;;;;;5.07;94.31;101235.66;5215314;28;20041;-77
2021/04/03 00:49:28;;;;;;;27.73;4.18;;;;;;;4.95;94.93;101233.09;5212924;28;20033;-77
2021/04/03 00:52:06;;;;;;;34.60;4.57;;;;;;;4.96;94.45;101232.22;5209590;28;20069;-77
2021/04/03 00:54:37;;;;;;;28.85;3.92;;;;;;;4.98;94.75;101238.25;5210663;28;20020;-77
2021/04/03 00:57:08;;;;;;;28.75;4.63;;;;;;;4.90;94.25;101237.44;5191844;28;20036;-77
2021/04/03 00:59:39;;;;;;;27.83;4.63;;;;;;;4.98;94.36;101242.59;5203849;28;20038;-77
2021/04/03 01:02:09;;;;;;;27.33;4.55;;;;;;;4.83;94.58;101250.41;5209677;28;20044;-77
2021/04/03 01:04:39;;;;;;;22.73;4.38;;;;;;;4.80;94.59;101247.81;5208430;28;20024;-77
2021/04/03 01:07:10;;;;;;;27.63;3.72;;;;;;;4.81;94.15;101249.53;5210365;28;20026;-77
2021/04/03 01:09:40;;;;;;;27.45;4.15;;;;;;;4.77;94.22;101253.00;5217102;28;20017;-77
2021/04/03 01:12:28;;;;;;;30.65;3.95;;;;;;;4.79;94.14;101249.53;5221777;28;20098;-77
2021/04/03 01:15:07;;;;;;;32.90;4.72;;;;;;;4.65;93.63;101253.84;5214926;28;20018;-77
2021/04/03 01:18:02;;;;;;;32.78;4.22;;;;;;;4.76;93.81;101252.13;5195007;28;20045;-77
2021/04/03 01:20:56;;;;;;;27.88;3.55;;;;;;;4.72;93.57;101265.06;5211674;28;20112;-77
2021/04/03 01:24:03;;;;;;;26.75;3.75;;;;;;;4.60;93.90;101255.59;5209582;28;20067;-77
2021/04/03 01:27:18;;;;;;;23.25;3.60;;;;;;;4.59;94.20;101263.34;5193747;28;20120;-77
2021/04/03 01:30:04;;;;;;;27.48;4.00;;;;;;;4.59;93.87;101264.22;5200564;28;20522;-77
2021/04/03 01:32:56;;;;;;;35.35;4.13;;;;;;;4.45;94.25;101257.34;5212671;28;20066;-77
2021/04/03 01:35:34;;;;;;;29.73;3.70;;;;;;;4.49;94.31;101259.06;5209511;28;20025;-77
2021/04/03 01:38:08;;;;;;;28.73;4.18;;;;;;;4.48;94.10;101270.28;5215061;28;20104;-77
2021/04/03 01:40:39;;;;;;;32.75;4.38;;;;;;;4.43;94.09;101265.09;5222702;28;20491;-77
2021/04/03 01:43:20;;;;;;;32.65;3.60;;;;;;;4.46;93.64;101272.00;5204197;28;20422;-77
2021/04/03 01:45:54;;;;;;;26.25;3.78;;;;;;;4.47;93.80;101263.38;5210291;28;20036;-77
2021/04/03 01:48:25;;;;;;;32.35;4.05;;;;;;;4.43;93.18;101264.25;5212453;28;20232;-77
2021/04/03 01:50:55;;;;;;;26.67;3.95;;;;;;;4.40;93.68;101272.84;5213787;28;20453;-77
2021/04/03 01:53:26;;;;;;;26.42;3.75;;;;;;;4.31;93.49;101265.09;5208710;28;20091;-77
2021/04/03 01:55:57;;;;;;;27.35;4.03;;;;;;;4.24;93.87;101268.53;5202685;28;20471;-77
2021/04/03 01:58:30;;;;;;;29.60;3.83;;;;;;;4.30;93.71;101260.78;5206157;28;20094;-77
2021/04/03 02:01:00;;;;;;;32.30;4.25;;;;;;;4.37;93.40;101267.69;5212644;28;20057;-77
2021/04/03 02:03:34;;;;;;;22.20;3.83;;;;;;;4.30;93.38;101270.28;5212194;28;20060;-77
2021/04/03 02:06:07;;;;;;;24.40;3.50;;;;;;;4.26;92.76;101269.41;5212438;28;20097;-77
2021/04/03 02:08:39;;;;;;;25.38;3.97;;;;;;;4.27;93.37;101265.94;5208071;28;20530;-77
2021/04/03 02:11:11;;;;;;;24.98;3.92;;;;;;;4.39;92.19;101271.13;5204068;28;20040;-77
2021/04/03 02:13:41;;;;;;;28.50;4.40;;;;;;;4.18;93.14;101278.88;5202933;28;20029;-77
2021/04/03 02:16:12;;;;;;;26.88;3.85;;;;;;;4.17;93.06;101279.75;5210312;28;20029;-77
2021/04/03 02:18:43;;;;;;;28.45;3.78;;;;;;;4.24;92.46;101296.13;5207029;28;20060;-77
2021/04/03 02:21:14;;;;;;;25.52;3.65;;;;;;;4.24;92.78;101294.41;5207172;28;20049;-77
2021/04/03 02:23:45;;;;;;;28.50;4.47;;;;;;;4.23;92.75;101290.09;5205774;28;20059;-77
2021/04/03 02:26:15;;;;;;;26.05;3.92;;;;;;;4.02;93.84;101300.41;5214366;28;20111;-77
2021/04/03 02:28:45;;;;;;;31.15;4.10;;;;;;;4.15;92.73;101296.97;5210706;28;20044;-77
2021/04/03 02:31:16;;;;;;;32.33;4.40;;;;;;;3.95;93.81;101298.66;5214269;28;20021;-77
2021/04/03 02:33:46;;;;;;;26.98;4.25;;;;;;;4.11;93.82;101300.41;5210237;28;20033;-77
2021/04/03 02:36:17;;;;;;;26.98;4.45;;;;;;;4.22;93.05;101297.84;5214663;28;20051;-77
2021/04/03 02:38:48;;;;;;;25.90;4.22;;;;;;;4.05;93.36;101307.28;5216893;28;20053;-78
2021/04/03 02:41:24;;;;;;;27.75;3.90;;;;;;;4.04;92.59;101302.97;5217181;28;20056;-77
2021/04/03 02:44:04;;;;;;;19.85;3.78;;;;;;;4.14;92.39;101300.41;5221585;28;20027;-77
2021/04/03 02:46:50;;;;;;;24.50;4.18;;;;;;;4.08;92.42;101300.41;5211933;28;20104;-77
2021/04/03 02:49:40;;;;;;;25.35;4.22;;;;;;;4.04;92.86;101303.84;5207154;28;20025;-77
2021/04/03 02:52:12;;;;;;;28.35;4.18;;;;;;;4.09;92.95;101309.91;5210743;28;20088;-77
2021/04/03 02:54:43;;;;;;;24.58;4.00;;;;;;;3.93;93.28;101305.53;5214396;28;20107;-77
2021/04/03 02:57:15;;;;;;;27.52;3.88;;;;;;;3.92;94.13;101319.34;5210019;28;20067;-78
2021/04/03 02:59:51;;;;;;;21.40;4.00;;;;;;;3.87;93.94;101309.81;5211287;28;20399;-77
2021/04/03 03:02:24;;;;;;;30.92;3.60;;;;;;;3.85;93.10;101306.38;5211862;28;20032;-78
2021/04/03 03:04:55;;;;;;;27.58;4.22;;;;;;;3.75;94.37;101308.06;5211921;28;20025;-77
2021/04/03 03:07:26;;;;;;;27.98;3.95;;;;;;;3.84;94.37;101308.13;5214384;28;20064;-77
2021/04/03 03:09:58;;;;;;;26.45;4.50;;;;;;;3.72;94.03;101315.81;5218120;28;20029;-77
2021/04/03 03:12:30;;;;;;;27.52;4.10;;;;;;;3.70;95.20;101312.38;5221993;28;20025;-78
2021/04/03 03:15:03;;;;;;;22.83;3.70;;;;;;;3.79;95.02;101322.72;5219665;28;20029;-77
2021/04/03 03:17:35;;;;;;;33.38;4.18;;;;;;;3.90;93.71;101320.16;5212915;28;20120;-77
2021/04/03 03:20:07;;;;;;;28.38;4.03;;;;;;;3.81;95.04;101327.91;5214233;28;20026;-77
2021/04/03 03:22:37;;;;;;;23.30;4.13;;;;;;;3.79;94.62;101333.06;5211851;28;20038;-77
2021/04/03 03:25:08;;;;;;;25.42;4.00;;;;;;;3.88;94.44;101338.28;5213614;28;20033;-77
2021/04/03 03:27:45;;;;;;;26.23;3.70;;;;;;;3.90;95.20;101343.44;5212306;28;20077;-77
2021/04/03 03:30:18;;;;;;;29.33;4.50;;;;;;;3.80;95.28;101334.78;5204240;28;20028;-77
2021/04/03 03:32:48;;;;;;;34.42;4.72;;;;;;;3.78;95.69;101341.69;5205468;28;20036;-77
2021/04/03 03:35:19;;;;;;;32.75;4.20;;;;;;;3.65;95.80;101336.47;5211297;28;20092;-77
2021/04/03 03:37:52;;;;;;;22.23;4.07;;;;;;;3.71;96.11;101329.59;5213911;28;20069;-77
2021/04/03 03:40:24;;;;;;;30.52;4.30;;;;;;;3.63;95.89;101339.03;5212426;28;20031;-78
2021/04/03 03:42:55;;;;;;;34.80;4.78;;;;;;;3.62;95.90;101329.53;5223827;28;20028;-77
2021/04/03 03:45:26;;;;;;;28.35;3.97;;;;;;;3.71;95.40;101333.88;5210986;28;20035;-77
2021/04/03 03:47:56;;;;;;;25.25;4.13;;;;;;;3.71;95.68;101329.59;5217764;28;20403;-77
2021/04/03 03:50:27;;;;;;;24.45;3.70;;;;;;;3.66;95.78;101325.25;5216104;28;20029;-77
2021/04/03 03:52:57;;;;;;;21.75;3.97;;;;;;;3.56;95.25;101332.97;5210282;28;20098;-77
2021/04/03 03:55:27;;;;;;;26.33;4.40;;;;;;;3.57;96.00;101326.94;5217154;28;20037;-77
2021/04/03 03:57:57;;;;;;;24.20;4.20;;;;;;;3.64;95.27;101329.56;5217834;28;20116;-77
2021/04/03 04:00:28;;;;;;;28.48;3.45;;;;;;;3.74;95.38;101324.44;5217744;28;20029;-77
2021/04/03 04:02:58;;;;;;;22.27;3.85;;;;;;;3.69;96.31;101331.31;5217444;28;20039;-77
2021/04/03 04:05:29;;;;;;;26.95;4.40;;;;;;;3.54;95.78;101337.28;5216295;28;20482;-77
2021/04/03 04:08:01;;;;;;;32.70;4.32;;;;;;;3.59;96.31;101336.44;5218874;28;20118;-77
2021/04/03 04:10:31;;;;;;;28.15;3.95;;;;;;;3.68;95.05;101339.06;5222071;28;20021;-77
2021/04/03 04:13:02;;;;;;;31.27;4.30;;;;;;;3.70;95.85;101343.38;5224764;28;20383;-77
2021/04/03 04:15:32;;;;;;;32.58;4.45;;;;;;;3.70;95.73;101335.63;5220279;28;20032;-77
2021/04/03 04:18:03;;;;;;;33.83;4.32;;;;;;;3.65;96.17;101326.97;5216304;28;20108;-77
2021/04/03 04:20:33;;;;;;;26.10;4.10;;;;;;;3.41;96.97;101335.47;5214519;28;20068;-77
2021/04/03 04:23:03;;;;;;;29.10;4.07;;;;;;;3.27;97.29;101335.41;5213540;28;20029;-77
2021/04/03 04:25:34;;;;;;;35.03;3.88;;;;;;;3.53;96.96;101338.97;5216212;28;20040;-77
2021/04/03 04:28:04;;;;;;;27.70;3.92;;;;;;;3.58;96.78;101344.19;5216654;28;20434;-77
2021/04/03 04:30:35;;;;;;;33.90;4.80;;;;;;;3.55;95.91;101347.59;5215648;28;20025;-77
2021/04/03 04:33:05;;;;;;;36.42;4.20;;;;;;;3.65;96.42;101345.06;5216322;28;20112;-77
2021/04/03 04:35:35;;;;;;;25.52;4.40;;;;;;;3.48;95.58;101353.59;5216253;28;20025;-77
2021/04/03 04:38:06;;;;;;;34.40;4.18;;;;;;;3.44;96.06;101358.75;5219018;28;20029;-77
2021/04/03 04:40:36;;;;;;;30.52;4.72;;;;;;;3.40;96.17;101367.34;5226201;28;20105;-77
2021/04/03 04:43:06;;;;;;;30.75;4.68;;;;;;;3.36;97.15;101381.09;5206715;28;20041;-77
2021/04/03 04:45:37;;;;;;;21.73;4.43;;;;;;;3.29;97.55;101375.03;5219754;28;20396;-77
2021/04/03 04:48:07;;;;;;;29.90;4.53;;;;;;;3.32;97.80;101384.50;5216428;28;20037;-77
2021/04/03 04:50:38;;;;;;;26.90;4.53;;;;;;;3.26;98.53;101389.63;5215107;28;20037;-77
2021/04/03 04:53:08;;;;;;;38.58;5.00;;;;;;;3.21;98.06;101393.91;5217221;28;20025;-78
2021/04/03 04:55:38;;;;;;;28.77;4.07;;;;;;;3.20;98.65;101397.34;5214216;28;20017;-77
2021/04/03 04:58:09;;;;;;;26.58;3.90;;;;;;;3.20;97.98;101400.78;5215648;28;20040;-77
2021/04/03 05:00:39;;;;;;;28.33;3.97;;;;;;;3.17;98.99;101411.09;5216834;28;20035;-78
2021/04/03 05:03:09;;;;;;;28.35;4.20;;;;;;;3.33;97.09;101412.06;5214169;28;20060;-77
2021/04/03 05:05:39;;;;;;;26.27;4.25;;;;;;;3.24;96.25;101417.16;5217119;28;20020;-77
2021/04/03 05:08:10;;;;;;;22.00;4.07;;;;;;;3.24;97.93;101412.88;5199590;28;20025;-78
2021/04/03 05:10:40;;;;;;;26.90;4.47;;;;;;;3.30;96.74;101422.34;5225748;28;20506;-77
2021/04/03 05:13:10;;;;;;;25.20;4.18;;;;;;;3.40;96.48;101424.16;5224533;28;20021;-78
2021/04/03 05:15:40;;;;;;;33.33;4.78;;;;;;;3.36;95.51;101432.75;5217991;28;20045;-77
2021/04/03 05:18:11;;;;;;;29.80;5.07;;;;;;;3.56;94.97;101431.16;5216855;28;20029;-77
2021/04/03 05:20:41;;;;;;;26.85;4.60;;;;;;;3.77;95.27;101430.44;5214077;28;20527;-78
2021/04/03 05:23:11;;;;;;;32.25;4.75;;;;;;;3.81;93.58;101429.56;5211779;28;20035;-77
2021/04/03 05:25:41;;;;;;;19.92;4.10;;;;;;;3.93;94.39;101444.31;5211594;28;20033;-78
2021/04/03 05:28:13;;;;;;;27.45;4.65;;;;;;;3.77;95.02;101447.66;5212685;28;20383;-78
2021/04/03 05:30:44;;;;;;;21.77;4.22;;;;;;;3.76;94.80;101449.38;5216542;28;20068;-78
2021/04/03 05:33:14;;;;;;;27.23;4.50;;;;;;;3.95;94.08;101445.19;5206634;28;20537;-78
2021/04/03 05:35:44;;;;;;;24.92;4.40;;;;;;;4.03;94.04;101446.94;5212532;28;20055;-78
2021/04/03 05:38:14;;;;;;;27.75;4.78;;;;;;;3.94;92.78;101461.56;5212672;28;20116;-77
2021/04/03 05:40:45;;;;;;;26.35;4.50;;;;;;;4.13;93.09;101474.56;5223511;28;20033;-78
2021/04/03 05:43:18;;;;;;;26.35;4.45;;;;;;;4.09;93.30;101466.81;5224493;28;20031;-78
2021/04/03 05:45:56;;;;;;;32.80;5.30;;;;;;;4.19;93.94;101471.13;5214088;28;20496;-77
2021/04/03 05:48:26;;;;;;;36.33;5.47;;;;;;;4.23;92.88;101471.16;5213978;28;20529;-78
2021/04/03 05:51:00;;;;;;;31.90;4.95;;;;;;;4.52;91.99;101468.69;5213480;28;20029;-77
2021/04/03 05:53:30;;;;;;;28.70;4.32;;;;;;;4.37;91.76;101469.50;5213705;28;20024;-76
2021/04/03 05:56:01;;;;;;;37.30;4.60;;;;;;;4.09;92.50;101475.41;5213711;28;20559;-78
2021/04/03 05:58:31;;;;;;;34.28;4.40;;;;;;;4.40;93.46;101485.03;5211486;28;20388;-77
2021/04/03 06:01:03;;;;;;;28.52;4.13;;;;;;;4.18;94.35;101482.34;5213322;28;20059;-77
2021/04/03 06:03:34;;;;;;;31.88;5.10;;;;;;;4.15;94.59;101483.19;5207857;28;20025;-77
2021/04/03 06:06:05;;;;;;;27.98;4.45;;;;;;;4.69;93.39;101478.25;5204510;28;20021;-76
2021/04/03 06:08:35;;;;;;;27.92;5.03;;;;;;;4.67;92.20;101494.63;5213968;28;20626;-77
2021/04/03 06:11:17;;;;;;;37.30;6.60;;;;;;;4.87;91.02;101483.47;5220645;28;20636;-78
2021/04/03 06:14:07;;;;;;;28.98;5.50;;;;;;;4.66;91.44;101498.91;5221735;28;20033;-77
2021/04/03 06:16:42;;;;;;;22.88;4.55;;;;;;;4.55;93.38;101504.91;5212333;28;20084;-77
2021/04/03 06:19:15;;;;;;;18.30;3.47;;;;;;;5.06;91.76;101490.38;5212370;28;20579;-79
2021/04/03 06:21:47;;;;;;;24.90;4.72;;;;;;;5.00;91.10;101492.94;5214153;28;20271;-76
2021/04/03 06:24:20;;;;;;;31.13;5.28;;;;;;;5.03;91.47;101495.56;5210792;28;20021;-77
2021/04/03 06:27:10;;;;;;;28.38;5.20;;;;;;;4.98;90.44;101492.09;5207908;28;20033;-78
2021/04/03 06:29:49;;;;;;;33.22;5.40;;;;;;;4.94;92.42;101505.91;5210539;28;20383;-78
2021/04/03 06:32:19;;;;;;;28.20;5.35;;;;;;;5.23;90.80;101509.41;5250350;22;20051;-80
2021/04/03 06:34:53;;;;;;;22.80;4.40;;;;;;;5.53;90.13;101517.16;5265150;28;20040;-80
2021/04/03 06:37:26;;;;;;;29.20;4.38;;;;;;;5.62;89.86;101517.19;5247554;28;20783;-79
2021/04/03 06:39:59;;;;;;;37.42;5.15;;;;;;;5.40;90.18;101523.25;5261278;28;20050;-80
2021/04/03 06:42:46;;;;;;;29.60;5.22;;;;;;;5.35;90.48;101535.31;5251182;28;20485;-80
2021/04/03 06:45:31;;;;;;;28.52;5.10;;;;;;;5.28;91.40;101525.81;5244687;28;20123;-80
2021/04/03 06:48:06;;;;;;;28.58;5.05;;;;;;;5.38;90.49;101531.88;5242692;28;20479;-80
2021/04/03 06:50:40;;;;;;;31.50;4.93;;;;;;;5.36;89.69;101541.38;5245525;28;20502;-80
2021/04/03 06:53:16;;;;;;;29.25;4.63;;;;;;;5.82;89.79;101534.50;5226928;28;20021;-80
2021/04/03 06:55:48;;;;;;;31.30;5.35;;;;;;;6.28;89.00;101540.44;5244250;28;20024;-80
2021/04/03 06:58:18;;;;;;;26.67;4.45;;;;;;;6.31;87.29;101540.44;5243209;28;20025;-80
2021/04/03 07:00:49;;;;;;;29.73;4.95;;;;;;;6.58;85.93;101541.19;5237877;28;20110;-80
2021/04/03 07:03:24;;;;;;;26.52;4.78;;;;;;;8.85;78.35;101540.97;5245268;28;20090;-80
2021/04/03 07:05:55;;;;;;;25.08;4.90;;;;;;;10.41;71.58;101536.66;5245217;28;20060;-80
2021/04/03 07:08:26;;;;;;;24.95;5.40;;;;;;;11.29;67.31;101537.34;5227884;28;20047;-80
2021/04/03 07:10:57;;;;;;;21.10;4.57;;;;;;;11.05;68.76;101543.13;5225526;28;20132;-81
2021/04/03 07:13:29;;;;;;;21.70;5.13;;;;;;;10.32;67.89;101538.59;5251219;28;20541;-81
2021/04/03 07:16:03;;;;;;;23.05;4.60;;;;;;;10.40;70.67;101550.63;5233798;28;20237;-81
2021/04/03 07:18:34;;;;;;;18.63;4.40;;;;;;;12.09;63.01;101538.84;5231796;28;20027;-81
2021/04/03 07:21:07;;;;;;;22.60;4.97;;;;;;;12.01;64.94;101539.94;5233970;28;20021;-81
2021/04/03 07:23:38;;;;;;;24.05;4.70;;;;;;;13.89;58.92;101530.75;5233764;28;20123;-81
2021/04/03 07:26:12;;;;;;;17.75;4.70;;;;;;;13.72;59.49;101535.72;5251641;28;20112;-81
2021/04/03 07:28:43;;;;;;;18.77;4.75;;;;;;;16.11;54.12;101526.47;5233796;28;20028;-82
2021/04/03 07:31:37;;;;;;;19.05;5.00;;;;;;;16.68;53.91;101539.75;5251754;28;20031;-82
2021/04/03 07:34:09;;;;;;;17.83;4.55;;;;;;;15.51;54.08;101538.72;5246017;28;20021;-82
2021/04/03 07:36:41;;;;;;;17.45;4.40;;;;;;;15.86;54.49;101535.47;5232861;28;20035;-83
2021/04/03 07:39:35;;;;;;;19.23;4.82;;;;;;;16.05;53.86;101536.41;5232859;28;20442;-82
2021/04/03 07:42:06;;;;;;;14.00;4.20;;;;;;;17.38;52.85;101530.28;5233440;28;20115;-81
2021/04/03 07:44:37;;;;;;;16.42;4.32;;;;;;;17.49;51.01;101528.00;5250984;28;20107;-81
2021/04/03 07:47:18;;;;;;;13.85;4.00;;;;;;;17.19;52.67;101527.66;5251775;28;20111;-80
2021/04/03 07:49:48;;;;;;;17.85;4.50;;;;;;;16.85;52.94;101526.63;5247179;28;20069;-81
2021/04/03 07:52:51;;;;;;;15.27;3.75;;;;;;;15.50;54.51;101537.00;5251330;28;20033;-81
2021/04/03 07:55:34;;;;;;;20.30;4.40;;;;;;;16.17;54.24;101541.13;5224840;28;20104;-80
2021/04/03 07:58:23;;;;;;;17.25;4.13;;;;;;;16.52;52.51;101546.66;5246583;28;20024;-82
2021/04/03 08:00:56;;;;;;;15.75;4.28;;;;;;;17.32;50.99;101541.13;5249624;28;20020;-81
2021/04/03 08:03:28;;;;;;;14.85;4.35;;;;;;;18.09;51.17;101543.44;5251557;28;20039;-82
2021/04/03 08:06:02;;;;;;;17.98;4.55;;;;;;;19.28;49.35;101538.78;5243142;28;20028;-81
2021/04/03 08:08:34;;;;;;;17.90;4.70;;;;;;;18.73;49.47;101546.19;5228574;28;20024;-82
2021/04/03 08:11:09;;;;;;;14.23;4.40;;;;;;;18.10;50.79;101545.16;5251052;28;20471;-81
2021/04/03 08:13:42;;;;;;;17.30;4.47;;;;;;;16.11;54.69;101546.69;5232952;28;20032;-82
2021/04/03 08:16:13;;;;;;;14.40;4.18;;;;;;;17.59;51.17;101542.47;5233332;28;20032;-81
2021/04/03 08:18:46;;;;;;;15.65;4.43;;;;;;;17.49;51.74;101552.63;5233181;28;20032;-82
2021/04/03 08:21:18;;;;;;;16.35;4.07;;;;;;;17.31;51.40;101542.06;5248293;28;20080;-82
2021/04/03 08:23:52;;;;;;;20.98;4.57;;;;;;;17.74;51.63;101547.88;5237326;28;20103;-81
2021/04/03 08:26:25;;;;;;;15.68;4.22;;;;;;;17.02;52.01;101545.22;5224747;28;20500;-82
2021/04/03 08:28:55;;;;;;;14.30;4.28;;;;;;;17.08;50.61;101539.63;5230054;28;20115;-82
2021/04/03 08:31:28;;;;;;;18.48;4.28;;;;;;;15.37;54.37;101551.56;5229769;28;20569;-82
2021/04/03 08:34:00;;;;;;;15.75;4.47;;;;;;;16.09;54.07;101544.13;5229318;28;20505;-82
2021/04/03 08:36:33;;;;;;;13.43;4.22;;;;;;;17.64;52.40;101543.94;5229884;28;20028;-82
2021/04/03 08:39:12;;;;;;;13.90;4.15;;;;;;;18.80;50.60;101549.38;5247957;28;20028;-82
2021/04/03 08:41:49;;;;;;;14.52;4.30;;;;;;;16.36;53.71;101553.53;5231018;28;20039;-82
2021/04/03 08:44:28;;;;;;;17.10;4.35;;;;;;;16.44;52.29;101554.06;5228019;28;20115;-82
2021/04/03 08:47:04;;;;;;;12.77;3.72;;;;;;;17.25;51.72;101552.91;5249390;28;20029;-82
2021/04/03 08:49:37;;;;;;;15.80;4.40;;;;;;;16.59;52.70;101547.22;5251124;28;20040;-81
2021/04/03 08:52:08;;;;;;;16.05;4.10;;;;;;;17.87;50.52;101542.81;5248832;28;20024;-80
2021/04/03 08:54:40;;;;;;;16.05;4.03;;;;;;;15.41;54.19;101561.06;5230791;28;20040;-79
2021/04/03 08:57:38;;;;;;;16.85;4.88;;;;;;;17.54;51.83;101540.06;5245478;28;20047;-80
2021/04/03 09:00:09;;;;;;;16.50;4.70;;;;;;;16.35;53.82;101550.97;5247561;28;20012;-80
2021/04/03 09:02:40;;;;;;;18.58;5.20;;;;;;;18.16;51.02;101539.56;5236000;28;20024;-80
2021/04/03 09:05:11;;;;;;;14.98;4.50;;;;;;;17.21;50.96;101544.28;5246570;28;20031;-80
2021/04/03 09:07:42;;;;;;;17.92;4.43;;;;;;;18.03;51.26;101533.19;5248953;28;20196;-80
2021/04/03 09:10:21;;;;;;;16.27;4.45;;;;;;;19.31;48.71;101520.03;5248978;28;20028;-80
2021/04/03 09:12:53;;;;;;;14.10;4.32;;;;;;;18.60;50.53;101525.75;5230257;28;20054;-79
2021/04/03 09:15:26;;;;;;;15.48;4.65;;;;;;;18.61;49.65;101519.50;5248715;28;20020;-79
2021/04/03 09:17:58;;;;;;;16.92;4.40;;;;;;;18.89;50.08;101525.88;5232115;28;20025;-79
2021/04/03 09:20:29;;;;;;;15.57;4.55;;;;;;;18.54;50.23;101525.22;5225080;28;20501;-79
2021/04/03 09:23:05;;;;;;;15.15;4.47;;;;;;;18.23;48.75;101514.47;5242755;28;20040;-80
2021/04/03 09:25:35;;;;;;;16.75;4.15;;;;;;;17.50;51.15;101513.84;5237090;28;20024;-79
2021/04/03 09:28:12;;;;;;;19.63;5.82;;;;;;;16.42;52.92;101520.72;5239940;28;20031;-79
2021/04/03 09:30:45;;;;;;;14.70;4.78;;;;;;;15.60;54.61;101526.00;5243936;28;20386;-79
2021/04/03 09:33:26;;;;;;;17.98;4.95;;;;;;;14.76;58.43;101525.84;5239591;28;21069;-79
2021/04/03 09:36:11;;;;;;;17.73;7.47;;;;;;;14.31;57.05;101530.16;5238164;28;20480;-78
2021/04/03 09:38:42;;;;;;;17.10;4.95;;;;;;;13.84;57.38;101530.03;5240620;28;20028;-78
2021/04/03 09:41:43;;;;;;;20.48;7.53;;;;;;;12.99;58.05;101539.78;5226452;28;20036;-79
2021/04/03 09:44:15;;;;;;;14.90;6.00;;;;;;;13.48;58.45;101544.38;5242463;28;20072;-79
2021/04/03 09:46:46;;;;;;;20.63;7.35;;;;;;;13.20;58.01;101535.66;5244803;28;20027;-79
2021/04/03 09:49:16;;;;;;;22.60;7.38;;;;;;;13.61;58.59;101527.31;5245962;28;20025;-78
2021/04/03 09:51:46;;;;;;;17.65;4.00;;;;;;;13.03;58.61;101530.91;5242566;28;20047;-79
2021/04/03 09:54:17;;;;;;;16.70;5.88;;;;;;;13.14;58.87;101534.06;5244746;28;20066;-79
2021/04/03 09:56:48;;;;;;;25.88;5.97;;;;;;;12.44;61.50;101536.13;5243765;28;20505;-79
2021/04/03 09:59:18;;;;;;;17.00;4.28;;;;;;;12.83;60.49;101523.66;5245199;28;20163;-78
2021/04/03 10:01:49;;;;;;;15.75;5.15;;;;;;;12.90;60.65;101526.88;5243583;28;20514;-79
2021/04/03 10:04:19;;;;;;;16.50;4.60;;;;;;;13.18;60.07;101517.31;5244666;28;20060;-79
2021/04/03 10:06:50;;;;;;;14.35;3.97;;;;;;;13.11;59.63;101525.44;5244219;28;20035;-79
2021/04/03 10:09:21;;;;;;;19.05;7.70;;;;;;;13.43;56.13;101522.66;5242700;28;20032;-79
2021/04/03 10:11:52;;;;;;;15.63;5.03;;;;;;;12.97;57.12;101516.28;5233470;28;20020;-79
2021/04/03 10:14:22;;;;;;;13.23;4.68;;;;;;;12.68;55.52;101521.47;5240912;28;20028;-79
2021/04/03 10:16:53;;;;;;;10.43;3.42;;;;;;;12.47;57.15;101517.69;5223088;28;20063;-79
2021/04/03 10:19:23;;;;;;;9.43;3.03;;;;;;;12.45;55.32;101522.13;5239901;28;20099;-79
2021/04/03 10:21:53;;;;;;;14.55;4.32;;;;;;;12.24;56.93;101525.34;5241140;28;20025;-79
2021/04/03 10:24:23;;;;;;;13.68;4.97;;;;;;;11.86;58.32;101530.75;5242485;28;20020;-79
2021/04/03 10:26:54;;;;;;;8.05;2.25;;;;;;;11.76;57.76;101523.16;5244283;28;20058;-79
2021/04/03 10:29:24;;;;;;;11.32;2.63;;;;;;;11.74;57.91;101520.56;5242565;28;20024;-79
2021/04/03 10:31:54;;;;;;;13.40;5.40;;;;;;;12.00;55.86;101528.63;5234097;28;20102;-78
2021/04/03 10:34:24;;;;;;;7.45;2.10;;;;;;;12.08;56.87;101525.78;5241164;28;20022;-81
2021/04/03 10:36:55;;;;;;;8.25;2.75;;;;;;;12.44;56.12;101524.81;5244046;28;20024;-79
2021/04/03 10:39:25;;;;;;;8.73;2.60;;;;;;;12.41;55.02;101525.75;5229758;28;20657;-78
2021/04/03 10:41:55;;;;;;;5.85;1.65;;;;;;;12.36;53.75;101519.78;5244380;28;20036;-78
2021/04/03 10:44:26;;;;;;;8.65;1.75;;;;;;;12.13;54.89;101522.13;5242994;28;20048;-80
2021/04/03 10:46:57;;;;;;;10.48;2.97;;;;;;;11.88;56.03;101528.06;5236412;28;20166;-78
2021/04/03 10:49:28;;;;;;;6.88;1.90;;;;;;;11.95;55.92;101529.66;5243350;28;20115;-78
2021/04/03 10:51:59;;;;;;;9.48;2.67;;;;;;;12.05;55.74;101531.09;5237334;28;20399;-78
2021/04/03 10:54:29;;;;;;;8.77;2.90;;;;;;;12.14;55.25;101526.47;5239432;28;20013;-79
2021/04/03 10:56:59;;;;;;;8.55;2.22;;;;;;;12.14;53.48;101526.47;5240462;28;20078;-78
2021/04/03 10:59:29;;;;;;;6.60;1.95;;;;;;;12.08;53.24;101526.66;5237923;28;20029;-79
2021/04/03 11:02:00;;;;;;;8.10;2.80;;;;;;;11.89;51.45;101525.41;5240524;28;20474;-78
2021/04/03 11:04:30;;;;;;;4.78;1.55;;;;;;;11.80;51.57;101530.88;5238242;28;20242;-79
2021/04/03 11:07:01;;;;;;;15.95;6.90;;;;;;;11.87;50.44;101532.47;5240382;28;20024;-79
2021/04/03 11:09:32;;;;;;;10.70;2.30;;;;;;;11.83;51.63;101528.22;5241672;28;20017;-78
2021/04/03 11:12:02;;;;;;;3.58;1.75;;;;;;;11.90;52.54;101535.00;5242767;28;20666;-78
2021/04/03 11:14:33;;;;;;;5.80;1.38;;;;;;;12.06;51.88;101504.88;5239401;28;20028;-79
2021/04/03 11:17:03;;;;;;;3.25;1.65;;;;;;;12.13;50.74;101519.53;5234774;28;20040;-78
2021/04/03 11:19:33;;;;;;;5.90;1.35;;;;;;;11.93;50.72;101528.81;5235312;28;20040;-78
2021/04/03 11:22:04;;;;;;;4.65;1.40;;;;;;;12.13;50.60;101516.06;5241697;28;20120;-78
2021/04/03 11:24:35;;;;;;;3.75;1.10;;;;;;;12.23;50.85;101525.38;5240433;28;20017;-79
2021/04/03 11:27:05;;;;;;;4.95;1.00;;;;;;;12.24;49.71;101527.09;5240982;28;21933;-78
2021/04/03 11:29:36;;;;;;;6.22;0.80;;;;;;;12.28;50.59;101523.50;5236996;28;20570;-78
2021/04/03 11:32:06;;;;;;;5.00;1.20;;;;;;;12.43;49.01;101518.69;5241467;28;20056;-79
2021/04/03 11:34:37;;;;;;;4.15;0.85;;;;;;;12.40;49.22;101520.53;5242944;28;20068;-79
2021/04/03 11:37:07;;;;;;;2.58;0.85;;;;;;;12.54;50.06;101521.88;5240974;28;20036;-78
2021/04/03 11:39:38;;;;;;;5.47;1.10;;;;;;;11.68;50.64;101510.25;5242426;28;20631;-78
2021/04/03 11:42:08;;;;;;;5.35;0.82;;;;;;;11.76;50.44;101523.16;5245089;28;20460;-78
2021/04/03 11:44:38;;;;;;;7.53;2.17;;;;;;;11.98;49.61;101521.69;5243491;28;20025;-78
2021/04/03 11:47:09;;;;;;;3.83;1.00;;;;;;;12.25;49.64;101519.19;5241745;28;20025;-78
2021/04/03 11:49:39;;;;;;;5.00;0.90;;;;;;;12.27;48.47;101512.16;5236971;28;20108;-79